createdAt,value
2019-01-18T00:01:19.486Z,4.90
2019-01-18T00:04:06.284Z,4.90
2019-01-18T00:06:47.401Z,4.50
2019-01-18T00:09:14.789Z,4.10
2019-01-18T00:11:42.220Z,4.80
2019-01-18T00:14:09.585Z,4.80
2019-01-18T00:16:36.908Z,4.70
2019-01-18T00:19:04.332Z,4.70
2019-01-18T00:21:31.876Z,4.70
2019-01-18T00:23:59.212Z,4.60
2019-01-18T00:26:26.587Z,4.60
2019-01-18T00:28:53.931Z,4.50
2019-01-18T00:31:21.390Z,4.60
2019-01-18T00:33:48.749Z,4.40
2019-01-18T00:36:16.116Z,4.40
2019-01-18T00:38:43.499Z,4.40
2019-01-18T00:41:10.854Z,4.20
2019-01-18T00:43:38.195Z,5.00
2019-01-18T00:46:05.525Z,4.30
2019-01-18T00:48:47.383Z,4.20
2019-01-18T00:51:14.816Z,3.10
2019-01-18T00:53:42.192Z,4.10
2019-01-18T00:56:09.519Z,4.10
2019-01-18T00:58:36.923Z,4.10
2019-01-18T01:01:04.279Z,4.00
2019-01-18T01:03:31.587Z,4.00
2019-01-18T01:05:58.933Z,4.00
2019-01-18T01:08:26.334Z,4.00
2019-01-18T01:10:53.648Z,4.80
2019-01-18T01:13:21.062Z,4.10
2019-01-18T01:16:01.863Z,4.20
2019-01-18T01:18:30.990Z,3.50
2019-01-18T01:20:59.743Z,4.20
2019-01-18T01:23:27.149Z,4.20
2019-01-18T01:25:55.884Z,4.30
2019-01-18T01:28:23.224Z,4.30
2019-01-18T01:30:50.579Z,4.30
2019-01-18T01:33:17.979Z,4.30
2019-01-18T01:36:04.775Z,4.30
2019-01-18T01:38:32.149Z,3.80
2019-01-18T01:40:59.539Z,4.30
2019-01-18T01:43:48.130Z,4.20
2019-01-18T01:46:15.694Z,3.50
2019-01-18T01:48:43.457Z,4.20
2019-01-18T01:51:10.820Z,4.10
2019-01-18T01:53:38.231Z,4.20
2019-01-18T01:56:05.575Z,4.10
2019-01-18T01:58:33.058Z,4.10
2019-01-18T02:01:00.390Z,4.00
2019-01-18T02:03:27.727Z,4.20
2019-01-18T02:05:55.092Z,4.10
2019-01-18T02:08:22.419Z,4.00
2019-01-18T02:10:49.772Z,4.10
2019-01-18T02:13:17.147Z,3.90
2019-01-18T02:15:44.478Z,3.90
2019-01-18T02:18:11.867Z,3.80
2019-01-18T02:20:39.302Z,3.90
2019-01-18T02:23:06.652Z,3.80
2019-01-18T02:25:34.074Z,3.80
2019-01-18T02:28:01.412Z,3.70
2019-01-18T02:30:28.886Z,3.70
2019-01-18T02:32:56.336Z,4.00
2019-01-18T02:35:23.719Z,3.80
2019-01-18T02:37:51.071Z,3.70
2019-01-18T02:40:18.415Z,3.60
2019-01-18T02:42:45.761Z,3.60
2019-01-18T02:45:15.012Z,3.60
2019-01-18T02:47:42.324Z,3.60
2019-01-18T02:50:09.758Z,3.60
2019-01-18T02:52:37.144Z,3.50
2019-01-18T02:55:05.090Z,3.50
2019-01-18T02:57:32.439Z,3.50
2019-01-18T03:00:04.615Z,3.40
2019-01-18T03:02:29.062Z,3.50
2019-01-18T03:04:56.447Z,3.40
2019-01-18T03:07:23.842Z,3.30
2019-01-18T03:09:51.176Z,3.30
2019-01-18T03:12:18.494Z,3.20
2019-01-18T03:14:45.832Z,3.30
2019-01-18T03:17:13.191Z,3.30
2019-01-18T03:19:41.328Z,3.30
2019-01-18T03:22:08.666Z,3.40
2019-01-18T03:24:36.352Z,3.30
2019-01-18T03:27:03.782Z,3.20
2019-01-18T03:29:31.140Z,3.30
2019-01-18T03:31:58.513Z,3.20
2019-01-18T03:34:26.024Z,3.10
2019-01-18T03:36:53.496Z,3.10
2019-01-18T03:39:40.283Z,3.60
2019-01-18T03:42:08.218Z,2.70
2019-01-18T03:44:35.555Z,3.10
2019-01-18T03:47:02.919Z,3.00
2019-01-18T03:49:30.244Z,3.10
2019-01-18T03:51:57.540Z,3.00
2019-01-18T03:54:24.880Z,3.50
2019-01-18T03:56:52.208Z,3.00
2019-01-18T03:59:19.559Z,3.00
2019-01-18T04:01:47.034Z,3.00
2019-01-18T04:04:14.443Z,3.00
2019-01-18T04:06:41.746Z,2.90
2019-01-18T04:09:09.098Z,2.90
2019-01-18T04:11:36.425Z,2.80
2019-01-18T04:14:04.688Z,2.80
2019-01-18T04:16:32.406Z,2.80
2019-01-18T04:18:59.762Z,3.10
2019-01-18T04:21:27.775Z,2.80
2019-01-18T04:23:55.308Z,2.80
2019-01-18T04:26:24.302Z,2.80
2019-01-18T04:28:51.638Z,2.80
2019-01-18T04:31:18.982Z,2.80
2019-01-18T04:33:46.723Z,2.80
2019-01-18T04:36:14.043Z,2.80
2019-01-18T04:38:41.371Z,2.80
2019-01-18T04:41:08.722Z,2.70
2019-01-18T04:43:36.068Z,2.70
2019-01-18T04:46:03.427Z,2.70
2019-01-18T04:48:30.933Z,2.70
2019-01-18T04:50:58.314Z,2.60
2019-01-18T04:53:25.681Z,2.60
2019-01-18T04:55:53.155Z,2.60
2019-01-18T04:58:39.984Z,2.50
2019-01-18T05:01:07.429Z,2.00
2019-01-18T05:03:35.289Z,2.50
2019-01-18T05:06:02.729Z,2.50
2019-01-18T05:08:30.194Z,2.50
2019-01-18T05:11:18.266Z,2.50
2019-01-18T05:13:48.786Z,2.10
2019-01-18T05:16:16.453Z,2.40
2019-01-18T05:18:43.902Z,2.50
2019-01-18T05:21:11.245Z,2.40
2019-01-18T05:23:38.602Z,2.40
2019-01-18T05:26:05.972Z,2.40
2019-01-18T05:28:33.327Z,2.40
2019-01-18T05:31:00.718Z,2.40
2019-01-18T05:33:28.106Z,2.30
2019-01-18T05:35:55.437Z,2.40
2019-01-18T05:38:22.733Z,2.90
2019-01-18T05:40:50.068Z,2.30
2019-01-18T05:43:17.394Z,2.30
2019-01-18T05:45:44.762Z,2.70
2019-01-18T05:48:12.198Z,2.30
2019-01-18T05:50:39.550Z,2.40
2019-01-18T05:53:07.235Z,2.30
2019-01-18T05:55:54.050Z,2.30
2019-01-18T05:58:21.380Z,2.10
2019-01-18T06:01:02.443Z,3.30
2019-01-18T06:03:29.845Z,2.30
2019-01-18T06:06:10.145Z,2.30
2019-01-18T06:08:37.921Z,2.00
2019-01-18T06:11:05.282Z,2.30
2019-01-18T06:13:32.641Z,2.30
2019-01-18T06:16:00.023Z,2.30
2019-01-18T06:18:27.379Z,2.20
2019-01-18T06:20:54.699Z,2.70
2019-01-18T06:23:22.039Z,2.90
2019-01-18T06:25:49.375Z,2.20
2019-01-18T06:28:16.770Z,2.40
2019-01-18T06:30:44.115Z,2.20
2019-01-18T06:33:11.467Z,2.30
2019-01-18T06:35:38.817Z,2.30
2019-01-18T06:38:06.190Z,2.30
2019-01-18T06:40:33.692Z,2.30
2019-01-18T06:43:04.656Z,2.40
2019-01-18T06:45:32.737Z,2.30
2019-01-18T06:48:00.104Z,2.20
2019-01-18T06:50:27.415Z,2.20
2019-01-18T06:52:54.792Z,2.20
2019-01-18T06:55:23.102Z,2.20
2019-01-18T06:57:50.439Z,2.20
2019-01-18T07:00:29.340Z,2.20
2019-01-18T07:02:56.803Z,2.20
2019-01-18T07:05:26.245Z,2.20
2019-01-18T07:07:54.212Z,2.40
2019-01-18T07:10:21.648Z,2.50
2019-01-18T07:12:49.001Z,2.20
2019-01-18T07:15:17.896Z,2.80
2019-01-18T07:17:45.249Z,2.40
2019-01-18T07:21:08.618Z,2.50
2019-01-18T07:23:55.871Z,1.70
2019-01-18T07:26:23.260Z,3.50
2019-01-18T07:28:51.802Z,2.30
2019-01-18T07:31:19.394Z,3.10
2019-01-18T07:33:46.855Z,2.30
2019-01-18T07:36:14.211Z,2.30
2019-01-18T07:38:43.428Z,2.30
2019-01-18T07:41:10.782Z,2.40
2019-01-18T07:43:38.279Z,2.30
2019-01-18T07:46:05.604Z,2.40
2019-01-18T07:48:32.979Z,2.30
2019-01-18T07:51:00.427Z,3.20
2019-01-18T07:53:27.758Z,2.60
2019-01-18T07:55:55.136Z,2.30
2019-01-18T07:58:22.474Z,2.30
2019-01-18T08:00:50.605Z,2.20
2019-01-18T08:03:17.949Z,2.30
2019-01-18T08:05:45.387Z,2.60
2019-01-18T08:08:13.086Z,2.30
2019-01-18T08:10:40.684Z,2.20
2019-01-18T08:13:08.027Z,2.40
2019-01-18T08:15:35.470Z,2.30
2019-01-18T08:18:02.822Z,2.30
2019-01-18T08:20:30.557Z,2.30
2019-01-18T08:22:58.523Z,2.20
2019-01-18T08:25:25.939Z,2.30
2019-01-18T08:27:53.306Z,2.30
2019-01-18T08:30:22.504Z,2.30
2019-01-18T08:32:49.959Z,2.30
2019-01-18T08:35:18.676Z,2.40
2019-01-18T08:37:46.052Z,2.40
2019-01-18T08:40:22.171Z,2.40
2019-01-18T08:42:49.539Z,2.40
2019-01-18T08:45:20.262Z,2.50
2019-01-18T08:47:47.630Z,2.50
2019-01-18T08:50:15.207Z,2.60
2019-01-18T08:52:42.530Z,2.60
2019-01-18T08:55:09.908Z,2.60
2019-01-18T08:57:37.318Z,2.70
2019-01-18T09:00:06.142Z,3.40
2019-01-18T09:02:33.502Z,3.00
2019-01-18T09:05:00.966Z,3.10
2019-01-18T09:07:28.270Z,3.20
2019-01-18T09:09:55.639Z,3.10
2019-01-18T09:12:23.091Z,3.10
2019-01-18T09:14:50.506Z,3.10
2019-01-18T09:17:17.982Z,3.10
2019-01-18T09:19:45.284Z,3.20
2019-01-18T09:22:12.691Z,3.10
2019-01-18T09:24:40.027Z,3.10
2019-01-18T09:27:07.384Z,3.10
2019-01-18T09:29:35.728Z,3.10
2019-01-18T09:32:03.049Z,3.10
2019-01-18T09:34:30.387Z,3.20
2019-01-18T09:36:57.810Z,3.20
2019-01-18T09:39:25.131Z,3.30
2019-01-18T09:41:54.054Z,3.30
2019-01-18T09:44:21.387Z,3.40
2019-01-18T09:46:48.713Z,3.40
2019-01-18T09:49:16.026Z,3.40
2019-01-18T09:51:43.338Z,3.50
2019-01-18T09:54:10.694Z,3.60
2019-01-18T09:56:38.074Z,3.70
2019-01-18T09:59:05.466Z,3.80
2019-01-18T10:01:32.799Z,4.10
2019-01-18T10:04:00.083Z,4.10
2019-01-18T10:06:27.399Z,4.40
2019-01-18T10:08:54.703Z,4.40
2019-01-18T10:11:22.046Z,4.50
2019-01-18T10:13:49.439Z,4.60
2019-01-18T10:16:16.758Z,4.70
2019-01-18T10:18:44.135Z,4.90
2019-01-18T10:21:11.483Z,5.40
2019-01-18T10:23:38.848Z,5.40
2019-01-18T10:26:06.642Z,5.30
2019-01-18T10:28:34.086Z,6.00
2019-01-18T10:31:01.486Z,5.40
2019-01-18T10:33:28.860Z,5.50
2019-01-18T10:36:16.081Z,5.60
2019-01-18T10:38:43.490Z,4.90
2019-01-18T10:41:10.866Z,5.60
2019-01-18T10:43:38.490Z,5.70
2019-01-18T10:46:05.823Z,5.70
2019-01-18T10:48:33.381Z,5.80
2019-01-18T10:51:00.795Z,5.80
2019-01-18T10:53:47.888Z,5.80
2019-01-18T10:56:37.959Z,5.90
2019-01-18T10:59:16.414Z,6.00
2019-01-18T11:01:59.518Z,6.00
2019-01-18T11:04:22.275Z,6.00
2019-01-18T11:06:49.687Z,6.20
2019-01-18T11:09:17.040Z,6.10
2019-01-18T11:11:44.379Z,6.10
2019-01-18T11:14:11.706Z,6.20
2019-01-18T11:16:39.142Z,6.20
2019-01-18T11:19:06.552Z,6.50
2019-01-18T11:21:34.503Z,6.30
2019-01-18T11:24:01.857Z,6.40
2019-01-18T11:26:49.086Z,6.40
2019-01-18T11:29:16.567Z,5.90
2019-01-18T11:31:43.964Z,6.40
2019-01-18T11:34:11.355Z,6.90
2019-01-18T11:36:38.759Z,6.40
2019-01-18T11:39:25.677Z,6.40
2019-01-18T11:41:53.097Z,5.60
2019-01-18T11:44:20.441Z,6.40
2019-01-18T11:46:53.124Z,6.50
2019-01-18T11:49:20.523Z,6.20
2019-01-18T11:51:47.985Z,6.50
2019-01-18T11:54:15.299Z,6.40
2019-01-18T11:56:42.677Z,6.40
2019-01-18T11:59:10.062Z,6.40
2019-01-18T12:01:38.980Z,6.50
2019-01-18T12:04:06.438Z,6.40
2019-01-18T12:06:33.849Z,6.40
2019-01-18T12:09:01.285Z,6.40
2019-01-18T12:11:30.220Z,6.40
2019-01-18T12:13:57.805Z,7.10
2019-01-18T12:16:25.412Z,6.40
2019-01-18T12:18:54.295Z,6.50
2019-01-18T12:21:21.643Z,6.40
2019-01-18T12:23:49.025Z,6.40
2019-01-18T12:26:16.398Z,6.40
2019-01-18T12:28:43.825Z,6.40
2019-01-18T12:31:11.191Z,7.40
2019-01-18T12:33:38.670Z,6.50
2019-01-18T12:36:06.016Z,6.50
2019-01-18T12:38:33.341Z,6.60
2019-01-18T12:41:00.650Z,6.60
2019-01-18T12:43:28.094Z,6.60
2019-01-18T12:45:55.474Z,6.20
2019-01-18T12:48:22.806Z,6.60
2019-01-18T12:50:50.179Z,6.50
2019-01-18T12:53:17.559Z,6.60
2019-01-18T12:55:44.896Z,6.60
2019-01-18T12:58:12.250Z,6.60
2019-01-18T13:00:39.587Z,6.50
2019-01-18T13:03:07.615Z,6.50
2019-01-18T13:05:38.358Z,6.60
2019-01-18T13:08:05.706Z,6.60
2019-01-18T13:10:33.067Z,6.60
2019-01-18T13:13:00.402Z,6.60
2019-01-18T13:15:31.751Z,6.80
2019-01-18T13:17:59.092Z,6.70
2019-01-18T13:20:26.447Z,6.80
2019-01-18T13:22:53.831Z,6.60
2019-01-18T13:25:21.147Z,6.60
2019-01-18T13:27:48.508Z,6.70
2019-01-18T13:30:15.923Z,6.70
2019-01-18T13:32:43.258Z,7.10
2019-01-18T13:35:10.683Z,6.70
2019-01-18T13:37:38.032Z,6.70
2019-01-18T13:40:09.711Z,6.70
2019-01-18T13:42:37.104Z,6.80
2019-01-18T13:45:05.624Z,6.90
2019-01-18T13:47:33.847Z,6.90
2019-01-18T13:50:01.196Z,7.00
2019-01-18T13:52:28.482Z,7.00
2019-01-18T13:54:55.815Z,7.00
2019-01-18T13:57:23.130Z,7.00
2019-01-18T13:59:50.432Z,7.10
2019-01-18T14:02:18.271Z,7.00
2019-01-18T14:04:45.598Z,7.00
2019-01-18T14:07:12.939Z,7.40
2019-01-18T14:09:40.258Z,7.80
2019-01-18T14:12:07.586Z,7.10
2019-01-18T14:14:34.897Z,7.50
2019-01-18T14:17:02.246Z,6.90
2019-01-18T14:19:29.610Z,7.00
2019-01-18T14:21:56.939Z,7.00
2019-01-18T14:24:24.249Z,7.00
2019-01-18T14:26:51.563Z,7.00
2019-01-18T14:29:18.892Z,7.10
2019-01-18T14:31:46.211Z,7.00
2019-01-18T14:34:13.663Z,7.00
2019-01-18T14:36:40.967Z,6.90
2019-01-18T14:39:09.474Z,7.00
2019-01-18T14:41:36.831Z,7.00
2019-01-18T14:44:04.275Z,7.00
2019-01-18T14:46:31.622Z,7.00
2019-01-18T14:48:58.988Z,7.00
2019-01-18T14:51:26.306Z,6.90
2019-01-18T14:53:54.451Z,6.90
2019-01-18T14:56:21.823Z,6.90
2019-01-18T14:58:52.809Z,6.90
2019-01-18T15:01:20.139Z,7.30
2019-01-18T15:03:47.520Z,6.80
2019-01-18T15:06:14.894Z,6.80
2019-01-18T15:08:42.264Z,6.90
2019-01-18T15:11:11.131Z,6.80
2019-01-18T15:13:38.503Z,6.80
2019-01-18T15:16:05.883Z,6.80
2019-01-18T15:18:34.435Z,6.80
2019-01-18T15:21:01.774Z,6.70
2019-01-18T15:23:48.554Z,6.70
2019-01-18T15:26:18.527Z,6.00
2019-01-18T15:28:45.083Z,6.60
2019-01-18T15:31:12.427Z,6.50
2019-01-18T15:33:41.510Z,6.50
2019-01-18T15:36:28.392Z,6.50
2019-01-18T15:38:55.712Z,5.80
2019-01-18T15:41:23.184Z,6.40
2019-01-18T15:43:50.556Z,6.40
2019-01-18T15:46:17.864Z,6.40
2019-01-18T15:48:45.195Z,6.40
2019-01-18T15:51:12.515Z,6.30
2019-01-18T15:53:39.869Z,6.30
2019-01-18T15:56:07.206Z,6.20
2019-01-18T15:58:54.007Z,6.20
2019-01-18T16:01:21.346Z,5.70
2019-01-18T16:03:48.642Z,6.10
2019-01-18T16:06:16.348Z,6.60
2019-01-18T16:08:43.695Z,5.90
2019-01-18T16:11:11.055Z,5.90
2019-01-18T16:13:38.478Z,5.90
2019-01-18T16:18:51.032Z,4.90
2019-01-18T16:21:18.425Z,5.70
2019-01-18T16:23:46.182Z,5.70
2019-01-18T16:26:13.571Z,5.70
2019-01-18T16:28:40.913Z,5.70
2019-01-18T16:31:08.307Z,5.70
2019-01-18T16:33:35.676Z,5.60
2019-01-18T16:36:03.041Z,5.60
2019-01-18T16:38:32.216Z,5.50
2019-01-18T16:40:59.563Z,5.50
2019-01-18T16:43:40.574Z,5.50
2019-01-18T16:46:07.929Z,4.80
2019-01-18T16:48:35.254Z,5.40
2019-01-18T16:51:22.210Z,5.40
2019-01-18T16:53:49.548Z,5.10
2019-01-18T16:56:16.907Z,5.30
2019-01-18T16:58:44.248Z,5.30
2019-01-18T17:01:11.570Z,5.60
2019-01-18T17:03:38.914Z,5.50
2019-01-18T17:06:06.926Z,5.50
2019-01-18T17:08:34.451Z,5.50
2019-01-18T17:11:03.254Z,5.40
2019-01-18T17:13:34.247Z,5.30
2019-01-18T17:16:01.661Z,5.30
2019-01-18T17:18:29.100Z,5.20
2019-01-18T17:20:56.451Z,5.20
2019-01-18T17:23:24.044Z,5.10
2019-01-18T17:25:51.483Z,5.10
2019-01-18T17:28:18.932Z,5.00
2019-01-18T17:30:46.332Z,4.90
2019-01-18T17:33:13.695Z,4.90
2019-01-18T17:36:09.263Z,4.90
2019-01-18T17:39:33.865Z,4.80
2019-01-18T17:42:20.699Z,4.80
2019-01-18T17:45:30.226Z,4.80
2019-01-18T17:48:12.210Z,4.80
2019-01-18T17:51:29.332Z,4.70
2019-01-18T17:54:36.348Z,4.10
2019-01-18T17:57:34.555Z,4.70
2019-01-18T18:00:53.231Z,4.60
2019-01-18T18:04:04.332Z,4.60
2019-01-18T18:06:53.875Z,4.70
2019-01-18T18:09:28.745Z,4.60
2019-01-18T18:12:31.302Z,4.60
2019-01-18T18:15:39.014Z,4.60
2019-01-18T18:18:31.966Z,4.50
2019-01-18T18:21:40.277Z,4.50
2019-01-18T18:24:46.622Z,4.50
2019-01-18T18:28:14.131Z,3.90
2019-01-18T18:30:52.123Z,4.40
2019-01-18T18:34:06.159Z,4.30
2019-01-18T18:37:21.382Z,4.30
2019-01-18T18:43:57.224Z,4.20
2019-01-18T18:47:09.374Z,4.20
2019-01-18T18:50:03.427Z,4.10
2019-01-18T18:52:52.338Z,4.20
2019-01-18T18:56:01.519Z,3.90
2019-01-18T18:58:56.636Z,4.10
2019-01-18T19:01:56.436Z,4.00
2019-01-18T19:04:52.242Z,4.00
2019-01-18T19:11:00.519Z,3.90
2019-01-18T19:14:15.450Z,3.70
2019-01-18T19:17:02.607Z,3.80
2019-01-18T19:20:15.002Z,3.80
2019-01-18T19:23:04.994Z,3.50
2019-01-18T19:25:44.067Z,3.80
2019-01-18T19:28:48.103Z,3.70
2019-01-18T19:31:42.583Z,3.60
2019-01-18T19:34:43.749Z,3.20
2019-01-18T19:38:02.365Z,3.60
2019-01-18T19:40:45.107Z,3.60
2019-01-18T19:43:43.517Z,3.50
2019-01-18T19:46:46.155Z,3.50
2019-01-18T19:49:58.042Z,3.50
2019-01-18T19:53:03.020Z,3.40
2019-01-18T19:56:07.893Z,3.50
2019-01-18T19:59:03.727Z,3.40
2019-01-18T20:02:06.636Z,3.40
2019-01-18T20:05:27.544Z,3.30
2019-01-18T20:08:40.118Z,3.30
2019-01-18T20:11:51.166Z,3.30
2019-01-18T20:15:00.172Z,3.30
2019-01-18T20:18:18.658Z,3.30
2019-01-18T20:21:02.489Z,2.80
2019-01-18T20:24:10.859Z,3.20
2019-01-18T20:27:07.739Z,3.10
2019-01-18T20:30:19.347Z,3.20
2019-01-18T20:33:37.215Z,3.00
2019-01-18T20:36:34.983Z,3.00
2019-01-18T20:39:44.323Z,2.90
2019-01-18T20:42:37.540Z,2.90
2019-01-18T20:45:41.803Z,2.80
2019-01-18T20:48:36.674Z,2.80
2019-01-18T20:51:51.867Z,2.80
2019-01-18T20:54:47.208Z,2.80
2019-01-18T20:58:11.468Z,2.80
2019-01-18T21:01:20.261Z,2.70
2019-01-18T21:08:15.245Z,2.60
2019-01-18T21:11:17.703Z,2.60
2019-01-18T21:14:13.248Z,2.60
2019-01-18T21:17:34.700Z,2.10
2019-01-18T21:20:39.267Z,2.50
2019-01-18T21:23:39.949Z,2.50
2019-01-18T21:26:38.943Z,2.50
2019-01-18T21:29:43.704Z,2.60
2019-01-18T21:32:42.390Z,2.50
2019-01-18T21:35:47.206Z,2.60
2019-01-18T21:38:43.156Z,2.50
2019-01-18T21:41:42.146Z,2.50
2019-01-18T21:44:44.475Z,2.50
2019-01-18T21:47:27.689Z,2.60
2019-01-18T21:50:20.615Z,2.60
2019-01-18T21:53:26.919Z,2.60
2019-01-18T21:56:06.650Z,2.60
2019-01-18T21:59:12.880Z,2.60
2019-01-18T22:02:37.232Z,2.60
2019-01-18T22:05:46.458Z,2.60
2019-01-18T22:08:52.732Z,2.60
2019-01-18T22:11:57.070Z,2.70
2019-01-18T22:14:54.164Z,2.60
2019-01-18T22:17:47.526Z,2.60
2019-01-18T22:20:50.158Z,2.70
2019-01-18T22:23:49.743Z,2.70
2019-01-18T22:26:43.207Z,2.70
2019-01-18T22:30:06.863Z,2.80
2019-01-18T22:33:31.200Z,2.80
2019-01-18T22:36:30.513Z,2.70
2019-01-18T22:39:21.932Z,2.80
2019-01-18T22:42:33.937Z,2.80
2019-01-18T22:45:39.743Z,2.80
2019-01-18T22:49:05.586Z,2.80
2019-01-18T22:51:54.500Z,2.80
2019-01-18T22:55:00.750Z,2.90
2019-01-18T22:57:47.273Z,2.80
2019-01-18T23:04:55.644Z,2.80
2019-01-18T23:07:35.516Z,2.80
2019-01-18T23:10:34.307Z,2.80
2019-01-18T23:13:40.054Z,2.20
2019-01-18T23:16:57.172Z,2.90
2019-01-18T23:19:40.720Z,2.90
2019-01-18T23:22:37.183Z,2.80
2019-01-18T23:25:38.319Z,2.80
2019-01-18T23:28:43.624Z,2.90
2019-01-18T23:31:36.685Z,2.90
2019-01-18T23:34:35.424Z,2.90
2019-01-18T23:37:34.532Z,2.90
2019-01-18T23:40:42.899Z,2.90
2019-01-18T23:43:26.447Z,2.90
2019-01-18T23:46:56.624Z,2.90
2019-01-18T23:50:01.699Z,2.90
2019-01-18T23:52:57.850Z,2.90
2019-01-18T23:56:04.106Z,2.90
2019-01-18T23:58:46.832Z,2.90
